createdAt,value
2019-06-27T00:01:43.946Z,99.90
2019-06-27T00:04:12.812Z,99.90
2019-06-27T00:06:41.654Z,99.90
2019-06-27T00:09:11.856Z,99.90
2019-06-27T00:11:40.585Z,99.90
2019-06-27T00:14:09.639Z,99.90
2019-06-27T00:16:38.494Z,99.90
2019-06-27T00:19:07.379Z,99.90
2019-06-27T00:21:36.141Z,99.90
2019-06-27T00:24:05.028Z,99.90
2019-06-27T00:26:36.755Z,99.90
2019-06-27T00:29:05.634Z,99.90
2019-06-27T00:31:34.412Z,99.90
2019-06-27T00:34:03.386Z,99.90
2019-06-27T00:36:32.218Z,99.90
2019-06-27T00:39:01.182Z,99.90
2019-06-27T00:41:30.516Z,99.90
2019-06-27T00:44:01.722Z,99.90
2019-06-27T00:46:30.762Z,99.90
2019-06-27T00:48:59.553Z,99.90
2019-06-27T00:51:28.827Z,99.90
2019-06-27T00:53:57.847Z,99.90
2019-06-27T00:56:26.740Z,99.90
2019-06-27T00:58:55.628Z,99.90
2019-06-27T01:01:24.743Z,99.90
2019-06-27T01:03:53.819Z,99.90
2019-06-27T01:06:22.625Z,99.90
2019-06-27T01:08:51.603Z,99.90
2019-06-27T01:11:20.462Z,99.90
2019-06-27T01:13:49.386Z,99.90
2019-06-27T01:16:18.280Z,99.90
2019-06-27T01:18:47.039Z,99.90
2019-06-27T01:21:15.930Z,99.90
2019-06-27T01:23:45.197Z,99.90
2019-06-27T01:26:14.073Z,99.90
2019-06-27T01:28:42.803Z,99.90
2019-06-27T01:31:11.779Z,99.90
2019-06-27T01:33:40.694Z,99.90
2019-06-27T01:36:09.426Z,99.90
2019-06-27T01:38:38.227Z,99.90
2019-06-27T01:41:07.133Z,99.90
2019-06-27T01:43:35.955Z,99.90
2019-06-27T01:46:05.112Z,99.90
2019-06-27T01:48:34.145Z,99.90
2019-06-27T01:51:03.171Z,99.90
2019-06-27T01:53:32.027Z,99.90
2019-06-27T01:56:01.412Z,99.90
2019-06-27T01:58:30.461Z,99.90
2019-06-27T02:00:59.177Z,99.90
2019-06-27T02:03:28.043Z,99.90
2019-06-27T02:05:56.932Z,99.90
2019-06-27T02:08:26.034Z,99.90
2019-06-27T02:10:55.133Z,99.90
2019-06-27T02:13:24.018Z,99.90
2019-06-27T02:15:52.935Z,99.90
2019-06-27T02:18:21.780Z,99.90
2019-06-27T02:20:50.614Z,99.90
2019-06-27T02:23:19.789Z,99.90
2019-06-27T02:25:48.559Z,99.90
2019-06-27T02:28:17.570Z,99.90
2019-06-27T02:30:46.669Z,99.90
2019-06-27T02:33:15.766Z,99.90
2019-06-27T02:35:44.629Z,99.90
2019-06-27T02:38:13.545Z,99.90
2019-06-27T02:40:42.441Z,99.90
2019-06-27T02:43:11.159Z,99.90
2019-06-27T02:45:40.021Z,99.90
2019-06-27T02:48:08.928Z,99.90
2019-06-27T02:50:37.815Z,99.90
2019-06-27T02:53:06.547Z,99.90
2019-06-27T02:55:36.107Z,99.90
2019-06-27T02:58:27.546Z,99.90
2019-06-27T03:00:35.394Z,99.90
2019-06-27T03:03:04.560Z,99.90
2019-06-27T03:05:33.332Z,99.90
2019-06-27T03:08:02.392Z,99.90
2019-06-27T03:10:31.084Z,99.90
2019-06-27T03:12:59.946Z,99.90
2019-06-27T03:15:28.683Z,99.90
2019-06-27T03:17:57.379Z,99.90
2019-06-27T03:20:26.201Z,99.90
2019-06-27T03:22:55.757Z,99.90
2019-06-27T03:25:24.653Z,99.90
2019-06-27T03:27:53.397Z,99.90
2019-06-27T03:30:24.285Z,99.90
2019-06-27T03:32:53.161Z,99.90
2019-06-27T03:35:21.958Z,99.90
2019-06-27T03:37:50.720Z,99.90
2019-06-27T03:40:19.530Z,99.90
2019-06-27T03:42:48.217Z,99.90
2019-06-27T03:45:17.107Z,99.90
2019-06-27T03:47:46.410Z,99.90
2019-06-27T03:50:15.775Z,99.90
2019-06-27T03:52:44.812Z,99.90
2019-06-27T03:55:13.707Z,99.90
2019-06-27T03:57:45.380Z,99.90
2019-06-27T04:00:25.603Z,99.90
2019-06-27T04:02:54.372Z,99.90
2019-06-27T04:05:23.191Z,99.90
2019-06-27T04:07:52.084Z,99.90
2019-06-27T04:10:20.937Z,99.90
2019-06-27T04:12:49.874Z,99.90
2019-06-27T04:15:18.964Z,99.90
2019-06-27T04:17:47.960Z,99.90
2019-06-27T04:20:16.822Z,99.90
2019-06-27T04:22:45.951Z,99.90
2019-06-27T04:25:14.690Z,99.90
2019-06-27T04:27:43.731Z,99.90
2019-06-27T04:30:12.984Z,99.90
2019-06-27T04:32:41.922Z,99.90
2019-06-27T04:35:10.954Z,99.90
2019-06-27T04:37:39.746Z,99.90
2019-06-27T04:40:08.923Z,99.90
2019-06-27T04:42:37.770Z,99.90
2019-06-27T04:45:10.482Z,99.90
2019-06-27T04:47:39.120Z,99.90
2019-06-27T04:50:08.672Z,99.90
2019-06-27T04:52:38.481Z,99.90
2019-06-27T04:55:07.832Z,99.90
2019-06-27T04:57:36.999Z,99.90
2019-06-27T05:00:06.230Z,99.90
2019-06-27T05:02:35.012Z,99.90
2019-06-27T05:05:04.584Z,99.90
2019-06-27T05:07:33.263Z,99.90
2019-06-27T05:10:02.261Z,99.90
2019-06-27T05:12:30.985Z,99.90
2019-06-27T05:14:59.731Z,99.90
2019-06-27T05:17:28.729Z,99.90
2019-06-27T05:19:57.541Z,99.90
2019-06-27T05:22:26.723Z,99.90
2019-06-27T05:24:55.813Z,99.90
2019-06-27T05:27:24.509Z,99.90
2019-06-27T05:30:08.171Z,99.90
2019-06-27T05:32:24.125Z,99.90
2019-06-27T05:34:53.016Z,99.90
2019-06-27T05:37:22.011Z,99.90
2019-06-27T05:39:51.220Z,99.90
2019-06-27T05:42:20.677Z,99.90
2019-06-27T05:44:49.453Z,99.90
2019-06-27T05:47:18.271Z,99.90
2019-06-27T05:49:46.941Z,99.90
2019-06-27T05:52:15.868Z,99.90
2019-06-27T05:54:44.838Z,99.90
2019-06-27T05:57:13.577Z,99.90
2019-06-27T05:59:43.330Z,99.90
2019-06-27T06:02:12.241Z,99.90
2019-06-27T06:04:41.318Z,99.90
2019-06-27T06:07:10.110Z,99.90
2019-06-27T06:09:38.915Z,99.90
2019-06-27T06:12:07.688Z,99.90
2019-06-27T06:14:36.416Z,99.90
2019-06-27T06:17:05.210Z,99.90
2019-06-27T06:19:34.012Z,99.90
2019-06-27T06:22:02.742Z,99.90
2019-06-27T06:24:31.535Z,99.90
2019-06-27T06:27:00.200Z,99.90
2019-06-27T06:29:28.861Z,99.90
2019-06-27T06:31:57.574Z,99.90
2019-06-27T06:34:26.416Z,99.90
2019-06-27T06:36:55.273Z,99.90
2019-06-27T06:39:24.194Z,99.90
2019-06-27T06:41:52.845Z,99.90
2019-06-27T06:44:21.987Z,99.90
2019-06-27T06:46:50.887Z,99.90
2019-06-27T06:49:20.588Z,99.90
2019-06-27T06:51:49.956Z,99.90
2019-06-27T06:54:18.878Z,99.90
2019-06-27T06:56:49.357Z,99.90
2019-06-27T06:59:18.259Z,99.90
2019-06-27T07:01:47.888Z,99.90
2019-06-27T07:04:16.758Z,99.90
2019-06-27T07:06:46.083Z,99.60
2019-06-27T07:09:16.132Z,99.90
2019-06-27T07:11:44.890Z,99.40
2019-06-27T07:14:13.762Z,98.40
2019-06-27T07:16:43.551Z,99.70
2019-06-27T07:19:12.467Z,99.90
2019-06-27T07:21:41.729Z,99.90
2019-06-27T07:24:10.692Z,99.90
2019-06-27T07:26:39.770Z,99.90
2019-06-27T07:29:08.512Z,99.20
2019-06-27T07:31:37.368Z,98.10
2019-06-27T07:34:06.116Z,97.70
2019-06-27T07:36:34.848Z,98.00
2019-06-27T07:39:05.448Z,99.50
2019-06-27T07:41:34.496Z,98.80
2019-06-27T07:44:04.691Z,99.60
2019-06-27T07:46:33.521Z,98.70
2019-06-27T07:49:02.424Z,99.90
2019-06-27T07:51:31.253Z,99.90
2019-06-27T07:54:01.418Z,99.90
2019-06-27T07:56:30.356Z,99.90
2019-06-27T07:58:59.361Z,99.90
2019-06-27T08:01:35.045Z,99.90
2019-06-27T08:03:59.512Z,99.90
2019-06-27T08:06:28.612Z,99.90
2019-06-27T08:08:57.307Z,99.90
2019-06-27T08:11:26.056Z,99.90
2019-06-27T08:13:54.850Z,99.90
2019-06-27T08:16:23.627Z,99.90
2019-06-27T08:18:53.929Z,99.90
2019-06-27T08:21:22.778Z,99.90
2019-06-27T08:23:51.669Z,99.90
2019-06-27T08:26:20.563Z,99.40
2019-06-27T08:28:49.211Z,99.90
2019-06-27T08:31:18.009Z,99.00
2019-06-27T08:33:46.991Z,97.70
2019-06-27T08:36:15.843Z,98.20
2019-06-27T08:38:44.632Z,99.90
2019-06-27T08:41:14.204Z,99.90
2019-06-27T08:43:43.384Z,99.90
2019-06-27T08:46:12.212Z,99.90
2019-06-27T08:48:40.995Z,99.90
2019-06-27T08:51:09.890Z,99.90
2019-06-27T08:53:39.377Z,99.90
2019-06-27T08:56:08.096Z,99.90
2019-06-27T08:58:37.254Z,99.90
2019-06-27T09:01:06.140Z,99.90
2019-06-27T09:03:35.669Z,99.90
2019-06-27T09:06:04.560Z,99.90
2019-06-27T09:08:33.419Z,99.50
2019-06-27T09:11:02.766Z,99.20
2019-06-27T09:13:31.653Z,98.80
2019-06-27T09:16:00.426Z,99.00
2019-06-27T09:18:29.442Z,98.50
2019-06-27T09:20:58.639Z,99.20
2019-06-27T09:23:27.631Z,99.90
2019-06-27T09:25:56.382Z,99.40
2019-06-27T09:28:25.623Z,99.20
2019-06-27T09:30:54.918Z,98.60
2019-06-27T09:33:24.022Z,99.90
2019-06-27T09:35:52.736Z,99.90
2019-06-27T09:38:21.383Z,99.90
2019-06-27T09:40:50.278Z,99.90
2019-06-27T09:43:19.372Z,99.30
2019-06-27T09:45:48.195Z,99.60
2019-06-27T09:48:17.017Z,98.00
2019-06-27T09:50:45.841Z,98.70
2019-06-27T09:53:15.046Z,98.60
2019-06-27T09:55:47.240Z,97.50
2019-06-27T09:58:14.566Z,97.40
2019-06-27T10:00:43.328Z,97.30
2019-06-27T10:03:12.150Z,97.50
2019-06-27T10:05:41.112Z,98.30
2019-06-27T10:08:09.916Z,98.40
2019-06-27T10:10:38.653Z,97.60
2019-06-27T10:13:07.344Z,98.60
2019-06-27T10:15:36.180Z,98.10
2019-06-27T10:18:04.980Z,97.40
2019-06-27T10:20:34.369Z,97.90
2019-06-27T10:23:03.485Z,95.70
2019-06-27T10:25:33.610Z,95.50
2019-06-27T10:28:02.490Z,97.40
2019-06-27T10:30:31.400Z,96.10
2019-06-27T10:33:00.598Z,95.40
2019-06-27T10:35:29.530Z,97.20
2019-06-27T10:37:58.368Z,95.70
2019-06-27T10:40:27.270Z,95.40
2019-06-27T10:42:56.132Z,95.10
2019-06-27T10:45:25.075Z,95.10
2019-06-27T10:47:54.001Z,94.10
2019-06-27T10:50:22.793Z,93.50
2019-06-27T10:52:51.718Z,94.90
2019-06-27T10:55:20.590Z,94.30
2019-06-27T10:57:49.707Z,94.80
2019-06-27T11:00:19.115Z,95.10
2019-06-27T11:02:48.003Z,96.20
2019-06-27T11:05:17.093Z,96.20
2019-06-27T11:07:45.953Z,96.10
2019-06-27T11:10:14.994Z,96.30
2019-06-27T11:12:45.121Z,96.50
2019-06-27T11:15:16.145Z,96.10
2019-06-27T11:17:45.088Z,96.70
2019-06-27T11:20:15.745Z,95.40
2019-06-27T11:22:44.783Z,96.80
2019-06-27T11:25:14.862Z,95.00
2019-06-27T11:27:43.649Z,97.10
2019-06-27T11:30:13.100Z,96.80
2019-06-27T11:32:42.073Z,96.40
2019-06-27T11:35:11.251Z,96.20
2019-06-27T11:37:40.072Z,96.00
2019-06-27T11:40:12.295Z,97.30
2019-06-27T11:42:40.424Z,96.90
2019-06-27T11:45:09.325Z,97.50
2019-06-27T11:47:38.068Z,96.90
2019-06-27T11:50:07.540Z,98.10
2019-06-27T11:52:36.324Z,98.20
2019-06-27T11:55:05.280Z,96.30
2019-06-27T11:57:34.048Z,96.30
2019-06-27T12:00:03.473Z,97.00
2019-06-27T12:02:32.302Z,96.50
2019-06-27T12:05:01.367Z,95.80
2019-06-27T12:07:31.059Z,96.70
2019-06-27T12:09:59.855Z,97.00
2019-06-27T12:12:28.829Z,97.20
2019-06-27T12:14:57.851Z,98.90
2019-06-27T12:17:26.698Z,97.30
2019-06-27T12:19:55.624Z,96.50
2019-06-27T12:22:24.549Z,94.90
2019-06-27T12:24:55.047Z,94.40
2019-06-27T12:27:24.749Z,95.60
2019-06-27T12:29:53.563Z,94.60
2019-06-27T12:32:22.745Z,94.90
2019-06-27T12:34:51.633Z,94.10
2019-06-27T12:37:20.739Z,92.40
2019-06-27T12:39:49.829Z,92.60
2019-06-27T12:42:31.896Z,94.00
2019-06-27T12:44:49.244Z,91.80
2019-06-27T12:47:18.145Z,93.20
2019-06-27T12:50:01.152Z,91.40
2019-06-27T12:52:17.289Z,91.60
2019-06-27T12:54:46.116Z,91.40
2019-06-27T12:57:15.045Z,92.10
2019-06-27T12:59:43.894Z,90.80
2019-06-27T13:02:12.873Z,90.80
2019-06-27T13:04:41.801Z,91.50
2019-06-27T13:07:11.015Z,90.60
2019-06-27T13:09:40.702Z,91.10
2019-06-27T13:12:09.508Z,91.40
2019-06-27T13:14:38.324Z,91.10
2019-06-27T13:17:07.493Z,90.90
2019-06-27T13:19:39.570Z,89.90
2019-06-27T13:22:06.883Z,87.50
2019-06-27T13:24:36.183Z,89.00
2019-06-27T13:27:05.318Z,86.70
2019-06-27T13:29:34.145Z,85.80
2019-06-27T13:32:02.938Z,86.80
2019-06-27T13:34:40.348Z,83.50
2019-06-27T13:37:02.365Z,84.70
2019-06-27T13:39:31.070Z,89.10
2019-06-27T13:41:59.852Z,86.80
2019-06-27T13:44:28.796Z,85.10
2019-06-27T13:46:57.682Z,85.00
2019-06-27T13:49:26.354Z,83.80
2019-06-27T13:51:55.219Z,85.00
2019-06-27T13:54:24.360Z,81.40
2019-06-27T13:56:53.190Z,82.80
2019-06-27T13:59:22.144Z,81.20
2019-06-27T14:01:50.857Z,81.80
2019-06-27T14:04:19.692Z,81.20
2019-06-27T14:06:48.517Z,82.40
2019-06-27T14:09:23.577Z,79.60
2019-06-27T14:11:47.729Z,78.20
2019-06-27T14:14:16.697Z,82.10
2019-06-27T14:16:45.685Z,81.20
2019-06-27T14:19:14.606Z,76.40
2019-06-27T14:21:43.710Z,77.60
2019-06-27T14:24:12.489Z,79.10
2019-06-27T14:26:41.728Z,77.60
2019-06-27T14:29:10.747Z,75.30
2019-06-27T14:31:39.464Z,73.30
2019-06-27T14:34:08.369Z,75.60
2019-06-27T14:36:37.356Z,71.90
2019-06-27T14:39:07.165Z,72.10
2019-06-27T14:41:35.952Z,74.70
2019-06-27T14:44:04.889Z,74.70
2019-06-27T14:46:37.154Z,73.50
2019-06-27T14:49:04.232Z,69.70
2019-06-27T14:51:33.575Z,70.40
2019-06-27T14:54:02.467Z,69.00
2019-06-27T14:56:31.494Z,69.70
2019-06-27T14:59:00.272Z,69.00
2019-06-27T15:01:30.227Z,70.30
2019-06-27T15:03:58.986Z,69.30
2019-06-27T15:06:27.943Z,67.60
2019-06-27T15:08:56.674Z,66.40
2019-06-27T15:11:26.395Z,68.40
2019-06-27T15:13:55.192Z,65.30
2019-06-27T15:16:24.102Z,65.60
2019-06-27T15:18:52.989Z,64.30
2019-06-27T15:21:21.888Z,65.30
2019-06-27T15:23:50.709Z,62.40
2019-06-27T15:26:19.757Z,62.60
2019-06-27T15:28:48.503Z,63.10
2019-06-27T15:31:17.372Z,63.60
2019-06-27T15:33:46.230Z,64.90
2019-06-27T15:36:15.006Z,62.00
2019-06-27T15:38:43.795Z,63.90
2019-06-27T15:41:12.622Z,66.10
2019-06-27T15:43:41.396Z,65.60
2019-06-27T15:46:10.160Z,68.60
2019-06-27T15:48:39.003Z,65.00
2019-06-27T15:51:07.872Z,66.20
2019-06-27T15:53:36.860Z,64.60
2019-06-27T15:56:05.646Z,66.80
2019-06-27T15:58:34.546Z,62.70
2019-06-27T16:01:03.448Z,62.70
2019-06-27T16:03:32.456Z,63.80
2019-06-27T16:06:09.492Z,63.90
2019-06-27T16:08:31.669Z,62.40
2019-06-27T16:11:00.784Z,59.50
2019-06-27T16:13:29.585Z,60.80
2019-06-27T16:15:58.452Z,57.90
2019-06-27T16:18:27.783Z,59.30
2019-06-27T16:20:56.544Z,57.20
2019-06-27T16:23:25.430Z,59.30
2019-06-27T16:25:54.184Z,58.70
2019-06-27T16:28:26.616Z,57.50
2019-06-27T16:30:53.427Z,54.80
2019-06-27T16:33:22.431Z,57.70
2019-06-27T16:35:51.228Z,57.20
2019-06-27T16:38:20.116Z,56.80
2019-06-27T16:40:49.002Z,56.10
2019-06-27T16:43:17.865Z,57.60
2019-06-27T16:45:46.863Z,60.40
2019-06-27T16:48:15.860Z,57.10
2019-06-27T16:50:44.775Z,55.90
2019-06-27T16:53:13.751Z,56.30
2019-06-27T16:55:42.449Z,58.80
2019-06-27T16:58:11.656Z,57.80
2019-06-27T17:00:40.960Z,57.80
2019-06-27T17:03:09.853Z,58.10
2019-06-27T17:05:40.044Z,57.80
2019-06-27T17:08:09.025Z,58.60
2019-06-27T17:10:38.091Z,57.90
2019-06-27T17:13:06.807Z,57.70
2019-06-27T17:15:36.057Z,57.50
2019-06-27T17:18:04.865Z,56.80
2019-06-27T17:20:33.713Z,58.30
2019-06-27T17:23:05.339Z,58.50
2019-06-27T17:25:33.252Z,57.20
2019-06-27T17:28:02.141Z,58.00
2019-06-27T17:30:31.302Z,57.60
2019-06-27T17:33:00.242Z,58.50
2019-06-27T17:35:29.216Z,59.00
2019-06-27T17:37:58.095Z,55.80
2019-06-27T17:40:26.882Z,57.60
2019-06-27T17:42:56.876Z,56.50
2019-06-27T17:45:26.588Z,57.00
2019-06-27T17:47:56.264Z,57.30
2019-06-27T17:50:25.337Z,56.70
2019-06-27T17:52:55.162Z,57.60
2019-06-27T17:55:24.257Z,58.10
2019-06-27T17:57:56.852Z,58.10
2019-06-27T18:00:26.038Z,57.00
2019-06-27T18:02:54.927Z,57.60
2019-06-27T18:05:24.021Z,57.90
2019-06-27T18:07:52.906Z,57.30
2019-06-27T18:10:22.025Z,57.10
2019-06-27T18:12:51.074Z,58.70
2019-06-27T18:15:21.348Z,57.80
2019-06-27T18:17:50.075Z,57.80
2019-06-27T18:20:19.394Z,58.00
2019-06-27T18:22:48.219Z,57.90
2019-06-27T18:25:17.167Z,58.70
2019-06-27T18:27:46.064Z,60.60
2019-06-27T18:30:15.579Z,58.70
2019-06-27T18:32:44.567Z,58.10
2019-06-27T18:35:14.021Z,57.60
2019-06-27T18:37:42.887Z,57.20
2019-06-27T18:40:11.988Z,59.40
2019-06-27T18:42:40.799Z,57.10
2019-06-27T18:45:09.948Z,58.60
2019-06-27T18:47:38.834Z,59.50
2019-06-27T18:50:08.521Z,59.30
2019-06-27T18:52:37.334Z,59.40
2019-06-27T18:55:07.958Z,59.90
2019-06-27T18:57:36.888Z,60.00
2019-06-27T19:00:07.939Z,61.30
2019-06-27T19:02:36.749Z,58.00
2019-06-27T19:05:07.664Z,57.10
2019-06-27T19:07:45.343Z,56.40
2019-06-27T19:10:08.380Z,57.30
2019-06-27T19:12:37.432Z,58.80
2019-06-27T19:15:08.425Z,58.90
2019-06-27T19:17:37.881Z,57.90
2019-06-27T19:20:22.517Z,57.40
2019-06-27T19:23:10.165Z,58.70
2019-06-27T19:25:40.864Z,59.60
2019-06-27T19:28:09.884Z,61.70
2019-06-27T19:30:38.644Z,61.80
2019-06-27T19:33:07.677Z,61.60
2019-06-27T19:35:36.424Z,61.80
2019-06-27T19:38:05.248Z,62.90
2019-06-27T19:40:34.290Z,64.10
2019-06-27T19:43:03.403Z,64.70
2019-06-27T19:45:32.537Z,65.20
2019-06-27T19:48:01.425Z,65.20
2019-06-27T19:50:30.426Z,67.60
2019-06-27T19:52:59.289Z,65.90
2019-06-27T19:55:28.309Z,68.40
2019-06-27T19:57:57.281Z,69.00
2019-06-27T20:00:26.579Z,69.60
2019-06-27T20:02:55.465Z,70.30
2019-06-27T20:05:24.530Z,71.50
2019-06-27T20:07:53.545Z,71.00
2019-06-27T20:10:23.501Z,72.00
2019-06-27T20:12:52.597Z,73.90
2019-06-27T20:15:22.905Z,75.60
2019-06-27T20:17:51.706Z,74.40
2019-06-27T20:20:20.910Z,75.20
2019-06-27T20:22:50.009Z,76.60
2019-06-27T20:25:18.810Z,78.40
2019-06-27T20:27:47.949Z,79.30
2019-06-27T20:30:17.882Z,80.00
2019-06-27T20:50:43.456Z,93.30
2019-06-27T20:53:12.574Z,97.20
2019-06-27T20:55:41.720Z,96.60
2019-06-27T20:58:10.748Z,98.90
2019-06-27T21:00:39.846Z,99.90
2019-06-27T21:03:08.935Z,99.90
2019-06-27T21:05:37.805Z,99.90
2019-06-27T21:08:06.722Z,99.90
2019-06-27T21:10:35.611Z,99.90
2019-06-27T21:13:04.527Z,99.90
2019-06-27T21:15:33.349Z,99.90
2019-06-27T21:18:02.517Z,99.90
2019-06-27T21:20:31.370Z,99.90
2019-06-27T21:23:00.386Z,99.90
2019-06-27T21:25:29.577Z,99.90
2019-06-27T21:27:58.672Z,99.90
2019-06-27T21:30:27.980Z,99.90
2019-06-27T21:32:56.754Z,99.90
2019-06-27T21:35:25.760Z,99.90
2019-06-27T21:37:54.632Z,99.90
2019-06-27T21:40:23.620Z,99.90
2019-06-27T21:42:52.458Z,99.90
2019-06-27T21:45:21.947Z,99.90
2019-06-27T21:47:52.537Z,99.90
2019-06-27T21:50:21.775Z,99.90
2019-06-27T21:52:51.581Z,99.90
2019-06-27T21:55:23.609Z,99.90
2019-06-27T21:57:53.153Z,99.90
2019-06-27T22:00:22.342Z,99.90
2019-06-27T22:02:51.366Z,99.90
2019-06-27T22:05:20.401Z,99.90
2019-06-27T22:07:53.162Z,99.90
2019-06-27T22:10:20.514Z,99.90
2019-06-27T22:12:49.584Z,99.90
2019-06-27T22:15:18.544Z,99.90
2019-06-27T22:17:47.368Z,99.90
2019-06-27T22:20:16.628Z,99.90
2019-06-27T22:22:45.534Z,99.90
2019-06-27T22:25:14.509Z,99.90
2019-06-27T22:27:43.444Z,99.90
2019-06-27T22:30:12.908Z,99.90
2019-06-27T22:32:41.820Z,99.90
2019-06-27T22:35:11.361Z,99.90
2019-06-27T22:37:39.585Z,99.90
2019-06-27T22:40:27.162Z,99.90
2019-06-27T22:43:13.924Z,99.90
2019-06-27T22:46:00.760Z,99.90
2019-06-27T22:48:29.063Z,99.90
2019-06-27T22:51:00.067Z,99.90
2019-06-27T22:53:36.449Z,99.90
2019-06-27T22:56:05.355Z,99.90
2019-06-27T22:58:34.564Z,99.90
2019-06-27T23:01:05.194Z,99.90
2019-06-27T23:03:34.126Z,99.90
2019-06-27T23:06:03.188Z,99.90
2019-06-27T23:08:32.074Z,99.90
2019-06-27T23:11:00.774Z,99.90
2019-06-27T23:13:29.599Z,99.90
2019-06-27T23:15:58.381Z,99.90
2019-06-27T23:18:27.231Z,99.90
2019-06-27T23:20:56.121Z,99.90
2019-06-27T23:23:25.833Z,99.90
2019-06-27T23:25:54.687Z,99.90
2019-06-27T23:28:23.458Z,99.90
2019-06-27T23:30:52.311Z,99.90
2019-06-27T23:33:21.090Z,99.90
2019-06-27T23:35:50.258Z,99.90
2019-06-27T23:38:19.189Z,99.90
2019-06-27T23:40:48.051Z,99.90
2019-06-27T23:43:16.835Z,99.90
2019-06-27T23:45:45.664Z,99.90
2019-06-27T23:48:14.682Z,99.90
2019-06-27T23:50:44.054Z,99.90
2019-06-27T23:53:12.760Z,99.90
2019-06-27T23:55:41.603Z,99.90
2019-06-27T23:58:10.485Z,99.90
